createdAt,value
2022-12-28T00:02:19.686Z,6.50
2022-12-28T00:04:48.297Z,4.20
2022-12-28T00:07:16.688Z,7.70
2022-12-28T00:09:44.971Z,4.07
2022-12-28T00:12:13.122Z,3.43
2022-12-28T00:14:41.294Z,5.80
2022-12-28T00:17:09.811Z,4.13
2022-12-28T00:19:39.596Z,7.50
2022-12-28T00:22:07.924Z,3.30
2022-12-28T00:24:36.132Z,6.10
2022-12-28T00:27:04.441Z,2.93
2022-12-28T00:29:32.730Z,3.27
2022-12-28T00:32:01.052Z,5.50
2022-12-28T00:34:29.357Z,2.77
2022-12-28T00:37:10.160Z,2.07
2022-12-28T00:39:41.447Z,3.40
2022-12-28T00:42:10.374Z,2.03
2022-12-28T00:44:38.873Z,1.93
2022-12-28T00:47:07.179Z,2.23
2022-12-28T00:49:35.582Z,1.50
2022-12-28T00:52:05.790Z,2.67
2022-12-28T00:54:34.648Z,2.63
2022-12-28T00:57:04.328Z,1.53
2022-12-28T00:59:34.591Z,1.70
2022-12-28T01:02:03.069Z,1.40
2022-12-28T01:04:31.569Z,1.20
2022-12-28T01:06:59.934Z,1.10
2022-12-28T01:09:29.668Z,1.47
2022-12-28T01:11:57.894Z,1.40
2022-12-28T01:14:26.275Z,1.30
2022-12-28T01:16:54.838Z,1.60
2022-12-28T01:19:25.262Z,1.27
2022-12-28T01:21:53.681Z,1.50
2022-12-28T01:24:23.007Z,1.17
2022-12-28T01:26:52.657Z,1.40
2022-12-28T01:29:21.210Z,0.97
2022-12-28T01:31:50.380Z,1.10
2022-12-28T01:34:18.687Z,1.10
2022-12-28T01:36:48.316Z,1.30
2022-12-28T01:39:16.660Z,1.87
2022-12-28T01:41:45.699Z,1.17
2022-12-28T01:44:46.989Z,1.17
2022-12-28T01:47:18.606Z,0.70
2022-12-28T01:49:51.823Z,1.13
2022-12-28T01:52:24.289Z,1.17
2022-12-28T01:54:55.241Z,1.00
2022-12-28T01:57:28.435Z,1.03
2022-12-28T02:00:03.042Z,1.20
2022-12-28T02:02:41.640Z,1.27
2022-12-28T02:05:10.694Z,1.17
2022-12-28T02:07:44.884Z,1.40
2022-12-28T02:10:42.762Z,0.90
2022-12-28T02:13:02.157Z,1.20
2022-12-28T02:15:31.852Z,0.80
2022-12-28T02:18:00.842Z,0.80
2022-12-28T02:20:34.729Z,0.90
2022-12-28T02:23:25.123Z,1.60
2022-12-28T02:26:26.040Z,1.90
2022-12-28T02:29:49.664Z,1.27
2022-12-28T02:32:30.452Z,1.37
2022-12-28T02:35:04.456Z,1.50
2022-12-28T02:37:37.630Z,2.60
2022-12-28T02:40:09.491Z,2.73
2022-12-28T02:42:40.475Z,2.30
2022-12-28T02:45:55.697Z,1.10
2022-12-28T02:48:41.797Z,0.90
2022-12-28T02:51:21.165Z,0.90
2022-12-28T02:54:10.280Z,1.30
2022-12-28T02:56:47.153Z,1.00
2022-12-28T02:59:40.001Z,1.10
2022-12-28T03:02:38.443Z,1.40
2022-12-28T03:05:14.360Z,0.80
2022-12-28T03:08:07.749Z,0.77
2022-12-28T03:10:44.137Z,1.03
2022-12-28T03:13:31.638Z,0.80
2022-12-28T03:16:05.702Z,1.10
2022-12-28T03:18:55.124Z,0.80
2022-12-28T03:21:42.777Z,1.10
2022-12-28T03:24:32.057Z,0.90
2022-12-28T03:27:22.180Z,0.83
2022-12-28T03:30:16.903Z,1.70
2022-12-28T03:32:46.042Z,0.80
2022-12-28T03:35:17.264Z,0.80
2022-12-28T03:37:53.640Z,0.90
2022-12-28T03:40:32.305Z,1.00
2022-12-28T03:43:23.126Z,0.70
2022-12-28T03:45:55.562Z,0.70
2022-12-28T03:48:24.850Z,0.90
2022-12-28T03:50:56.071Z,0.97
2022-12-28T03:53:29.988Z,1.10
2022-12-28T03:56:10.896Z,1.37
2022-12-28T03:58:40.187Z,0.67
2022-12-28T04:01:09.798Z,1.20
2022-12-28T04:03:40.515Z,0.70
2022-12-28T04:06:13.162Z,0.80
2022-12-28T04:08:41.562Z,1.00
2022-12-28T04:11:10.073Z,0.93
2022-12-28T04:13:38.862Z,1.03
2022-12-28T04:16:16.252Z,0.80
2022-12-28T04:18:45.591Z,0.80
2022-12-28T04:21:17.156Z,1.07
2022-12-28T04:23:46.921Z,1.00
2022-12-28T04:26:19.246Z,0.80
2022-12-28T04:28:50.250Z,1.13
2022-12-28T04:31:33.823Z,0.80
2022-12-28T04:34:11.923Z,0.70
2022-12-28T04:36:47.366Z,0.87
2022-12-28T04:39:19.645Z,1.17
2022-12-28T04:41:47.887Z,1.00
2022-12-28T04:44:16.302Z,0.77
2022-12-28T04:46:44.650Z,0.97
2022-12-28T04:49:12.919Z,0.97
2022-12-28T04:51:41.074Z,1.10
2022-12-28T04:54:13.721Z,1.30
2022-12-28T04:56:41.909Z,1.03
2022-12-28T04:59:10.072Z,0.80
2022-12-28T05:01:38.428Z,0.90
2022-12-28T05:04:07.188Z,0.83
2022-12-28T05:06:35.296Z,0.90
2022-12-28T05:09:03.823Z,0.93
2022-12-28T05:11:33.505Z,0.93
2022-12-28T05:14:01.922Z,1.00
2022-12-28T05:16:30.851Z,1.07
2022-12-28T05:18:59.373Z,0.90
2022-12-28T05:21:29.167Z,0.90
2022-12-28T05:23:58.250Z,1.80
2022-12-28T05:26:28.801Z,1.30
2022-12-28T05:28:59.560Z,0.87
2022-12-28T05:31:28.331Z,1.30
2022-12-28T05:33:56.883Z,1.33
2022-12-28T05:36:27.330Z,1.13
2022-12-28T05:38:56.711Z,1.60
2022-12-28T05:41:26.522Z,1.10
2022-12-28T05:43:54.850Z,1.43
2022-12-28T05:46:27.041Z,1.10
2022-12-28T05:48:56.272Z,1.43
2022-12-28T05:51:26.882Z,0.80
2022-12-28T05:53:55.514Z,0.70
2022-12-28T05:56:26.133Z,1.07
2022-12-28T05:58:56.016Z,0.90
2022-12-28T06:01:27.447Z,1.03
2022-12-28T06:03:59.163Z,0.90
2022-12-28T06:06:28.061Z,1.40
2022-12-28T06:08:56.870Z,0.87
2022-12-28T06:11:26.999Z,1.00
2022-12-28T06:13:55.525Z,1.23
2022-12-28T06:16:27.128Z,1.00
2022-12-28T06:18:55.830Z,1.03
2022-12-28T06:21:26.059Z,1.20
2022-12-28T06:23:57.836Z,1.13
2022-12-28T06:26:27.196Z,1.00
2022-12-28T06:28:55.403Z,1.60
2022-12-28T06:31:27.053Z,1.33
2022-12-28T06:33:57.239Z,0.90
2022-12-28T06:36:28.339Z,1.03
2022-12-28T06:38:58.410Z,0.93
2022-12-28T06:41:28.076Z,0.93
2022-12-28T06:43:56.672Z,0.90
2022-12-28T06:46:29.314Z,1.00
2022-12-28T06:48:58.040Z,0.90
2022-12-28T06:51:27.777Z,1.10
2022-12-28T06:53:56.936Z,0.90
2022-12-28T06:56:27.151Z,0.90
2022-12-28T06:59:02.548Z,1.07
2022-12-28T07:01:34.911Z,1.47
2022-12-28T07:04:04.618Z,1.57
2022-12-28T07:06:37.804Z,1.63
2022-12-28T07:09:07.905Z,0.90
2022-12-28T07:11:36.683Z,1.00
2022-12-28T07:14:05.097Z,1.00
2022-12-28T07:19:02.247Z,1.00
2022-12-28T07:21:32.534Z,1.33
2022-12-28T07:24:01.203Z,1.10
2022-12-28T07:26:31.416Z,1.20
2022-12-28T07:29:01.627Z,1.50
2022-12-28T07:31:31.577Z,1.33
2022-12-28T07:34:02.136Z,1.87
2022-12-28T07:36:32.602Z,1.87
2022-12-28T07:39:01.062Z,1.10
2022-12-28T07:41:31.120Z,1.40
2022-12-28T07:44:00.290Z,1.20
2022-12-28T07:46:30.340Z,1.27
2022-12-28T07:49:00.990Z,1.37
2022-12-28T07:51:31.086Z,0.87
2022-12-28T07:54:00.532Z,0.90
2022-12-28T07:56:29.852Z,1.20
2022-12-28T07:59:00.646Z,1.20
2022-12-28T08:01:30.574Z,1.10
2022-12-28T08:04:02.818Z,0.80
2022-12-28T08:06:34.561Z,1.00
2022-12-28T08:09:03.429Z,1.27
2022-12-28T08:11:33.394Z,0.90
2022-12-28T08:14:02.756Z,0.90
2022-12-28T08:16:34.203Z,0.97
2022-12-28T08:19:04.164Z,0.77
2022-12-28T08:21:36.385Z,0.87
2022-12-28T08:24:06.497Z,1.00
2022-12-28T08:26:37.028Z,1.23
2022-12-28T08:29:07.392Z,1.40
2022-12-28T08:31:37.606Z,1.13
2022-12-28T08:34:12.840Z,1.43
2022-12-28T08:36:41.041Z,1.20
2022-12-28T08:39:09.755Z,2.37
2022-12-28T08:41:38.066Z,1.00
2022-12-28T08:44:07.235Z,0.87
2022-12-28T08:46:36.998Z,1.00
2022-12-28T08:49:06.899Z,1.57
2022-12-28T08:51:37.383Z,1.80
2022-12-28T08:54:06.319Z,2.63
2022-12-28T08:56:36.609Z,1.43
2022-12-28T08:59:06.177Z,1.30
2022-12-28T09:01:42.609Z,1.63
2022-12-28T09:04:16.609Z,1.30
2022-12-28T09:06:45.165Z,1.60
2022-12-28T09:09:15.330Z,3.70
2022-12-28T09:11:44.656Z,4.30
2022-12-28T09:14:22.603Z,3.13
2022-12-28T09:16:51.892Z,3.40
2022-12-28T09:19:22.045Z,2.60
2022-12-28T09:21:52.750Z,2.90
2022-12-28T09:24:21.964Z,3.47
2022-12-28T09:26:52.940Z,2.47
2022-12-28T09:29:21.620Z,5.10
2022-12-28T09:31:49.955Z,10.90
2022-12-28T09:37:08.578Z,1.83
2022-12-28T09:39:36.889Z,3.40
2022-12-28T09:42:10.378Z,1.50
2022-12-28T09:44:57.402Z,1.57
2022-12-28T09:47:31.452Z,1.07
2022-12-28T09:50:06.578Z,1.77
2022-12-28T09:52:46.277Z,1.63
2022-12-28T09:55:19.707Z,1.50
2022-12-28T09:57:51.659Z,2.07
2022-12-28T10:00:22.649Z,2.37
2022-12-28T10:02:53.958Z,1.17
2022-12-28T10:05:23.160Z,1.53
2022-12-28T10:07:54.211Z,1.17
2022-12-28T10:10:29.468Z,3.00
2022-12-28T10:13:06.683Z,1.70
2022-12-28T10:15:35.308Z,1.87
2022-12-28T10:18:03.639Z,1.07
2022-12-28T10:20:33.963Z,1.00
2022-12-28T10:23:04.954Z,1.10
2022-12-28T10:25:34.244Z,1.23
2022-12-28T10:28:02.945Z,1.43
2022-12-28T10:30:31.761Z,0.97
2022-12-28T10:33:03.481Z,1.00
2022-12-28T10:35:42.121Z,1.03
2022-12-28T10:38:22.803Z,0.80
2022-12-28T10:41:00.739Z,1.10
2022-12-28T10:43:31.912Z,0.90
2022-12-28T10:46:01.542Z,1.10
2022-12-28T10:48:32.777Z,1.10
2022-12-28T10:51:11.474Z,0.90
2022-12-28T10:53:46.212Z,1.10
2022-12-28T10:56:25.040Z,0.97
2022-12-28T10:58:54.990Z,1.00
2022-12-28T11:01:27.518Z,1.00
2022-12-28T11:04:04.903Z,1.17
2022-12-28T11:06:34.594Z,1.23
2022-12-28T11:09:17.131Z,1.10
2022-12-28T11:11:46.993Z,1.30
2022-12-28T11:14:25.808Z,0.90
2022-12-28T11:16:54.399Z,1.23
2022-12-28T11:19:23.746Z,1.07
2022-12-28T11:21:53.733Z,1.00
2022-12-28T11:24:28.183Z,0.70
2022-12-28T11:26:56.729Z,0.70
2022-12-28T11:29:24.952Z,0.93
2022-12-28T11:32:00.756Z,1.00
2022-12-28T11:34:31.081Z,1.07
2022-12-28T11:36:59.882Z,0.90
2022-12-28T11:39:35.024Z,0.90
2022-12-28T11:42:37.147Z,1.20
2022-12-28T11:44:55.125Z,1.03
2022-12-28T11:47:36.509Z,1.07
2022-12-28T11:50:55.939Z,0.90
2022-12-28T11:53:52.985Z,0.97
2022-12-28T11:56:22.139Z,0.93
2022-12-28T11:59:22.636Z,1.20
2022-12-28T12:01:55.567Z,1.37
2022-12-28T12:04:42.758Z,0.97
2022-12-28T12:07:49.907Z,1.00
2022-12-28T12:10:38.931Z,1.10
2022-12-28T12:13:45.403Z,1.30
2022-12-28T12:16:22.516Z,1.30
2022-12-28T12:18:52.997Z,1.20
2022-12-28T12:21:30.436Z,1.60
2022-12-28T12:24:09.300Z,1.03
2022-12-28T12:26:45.521Z,1.13
2022-12-28T12:29:18.930Z,1.10
2022-12-28T12:31:51.289Z,0.77
2022-12-28T12:34:26.878Z,1.00
2022-12-28T12:37:39.877Z,1.20
2022-12-28T12:40:50.539Z,1.07
2022-12-28T12:43:31.509Z,1.13
2022-12-28T12:46:22.942Z,1.10
2022-12-28T12:49:08.278Z,1.10
2022-12-28T12:51:43.182Z,1.17
2022-12-28T12:54:25.381Z,1.20
2022-12-28T12:56:57.844Z,0.80
2022-12-28T12:59:48.557Z,1.10
2022-12-28T13:02:36.288Z,0.90
2022-12-28T13:05:06.215Z,1.07
2022-12-28T13:07:35.383Z,0.80
2022-12-28T13:10:05.197Z,1.00
2022-12-28T13:12:33.504Z,1.20
2022-12-28T13:15:12.335Z,1.57
2022-12-28T13:17:40.988Z,1.17
2022-12-28T13:20:11.974Z,1.30
2022-12-28T13:22:46.307Z,1.40
2022-12-28T13:25:28.608Z,1.07
2022-12-28T13:27:57.755Z,0.90
2022-12-28T13:30:27.728Z,1.03
2022-12-28T13:32:59.125Z,1.17
2022-12-28T13:35:29.320Z,0.70
2022-12-28T13:38:03.764Z,0.90
2022-12-28T13:40:32.942Z,1.30
2022-12-28T13:43:23.006Z,1.10
2022-12-28T13:45:56.621Z,0.90
2022-12-28T13:48:26.048Z,1.10
2022-12-28T13:50:54.736Z,1.20
2022-12-28T13:53:26.284Z,0.97
2022-12-28T13:55:57.746Z,1.00
2022-12-28T13:58:29.549Z,1.50
2022-12-28T14:01:01.343Z,1.10
2022-12-28T14:03:35.890Z,1.10
2022-12-28T14:06:09.269Z,1.30
2022-12-28T14:08:39.866Z,1.00
2022-12-28T14:11:08.835Z,1.20
2022-12-28T14:13:38.125Z,0.90
2022-12-28T14:16:09.501Z,1.00
2022-12-28T14:18:39.064Z,1.00
2022-12-28T14:21:07.649Z,0.83
2022-12-28T14:23:38.093Z,1.10
2022-12-28T14:26:08.976Z,1.10
2022-12-28T14:28:40.573Z,0.93
2022-12-28T14:31:13.069Z,1.00
2022-12-28T14:33:51.471Z,1.20
2022-12-28T14:36:23.015Z,1.00
2022-12-28T14:38:53.687Z,1.10
2022-12-28T14:41:25.790Z,1.43
2022-12-28T14:43:57.109Z,1.40
2022-12-28T14:46:34.070Z,1.20
2022-12-28T14:49:22.852Z,1.40
2022-12-28T14:51:51.100Z,1.10
2022-12-28T14:54:22.035Z,0.80
2022-12-28T14:56:54.683Z,1.00
2022-12-28T14:59:27.560Z,1.17
2022-12-28T15:01:57.593Z,0.97
2022-12-28T15:04:28.858Z,1.10
2022-12-28T15:06:57.058Z,0.97
2022-12-28T15:09:25.441Z,1.10
2022-12-28T15:12:09.978Z,1.20
2022-12-28T15:14:38.562Z,0.90
2022-12-28T15:17:09.232Z,1.60
2022-12-28T15:19:37.692Z,1.10
2022-12-28T15:22:06.231Z,2.20
2022-12-28T15:24:36.111Z,1.30
2022-12-28T15:27:04.848Z,1.40
2022-12-28T15:30:03.671Z,2.40
2022-12-28T15:32:22.647Z,2.10
2022-12-28T15:34:51.151Z,1.70
2022-12-28T15:37:19.295Z,6.80
2022-12-28T15:39:47.604Z,2.30
2022-12-28T15:42:15.830Z,1.93
2022-12-28T15:44:44.735Z,1.60
2022-12-28T15:47:13.182Z,2.03
2022-12-28T15:49:42.832Z,2.83
2022-12-28T15:52:11.250Z,2.30
2022-12-28T15:54:43.896Z,3.00
2022-12-28T15:57:15.829Z,1.97
2022-12-28T15:59:44.105Z,2.50
2022-12-28T16:02:12.939Z,1.87
2022-12-28T16:04:42.777Z,2.60
2022-12-28T16:07:11.037Z,2.40
2022-12-28T16:09:39.431Z,1.60
2022-12-28T16:12:07.924Z,1.50
2022-12-28T16:14:36.284Z,2.10
2022-12-28T16:17:04.420Z,2.70
2022-12-28T16:19:32.548Z,2.37
2022-12-28T16:22:02.103Z,2.33
2022-12-28T16:24:30.213Z,2.57
2022-12-28T16:26:58.560Z,2.27
2022-12-28T16:29:26.717Z,1.73
2022-12-28T16:31:57.000Z,1.63
2022-12-28T16:34:25.398Z,2.87
2022-12-28T16:36:57.235Z,3.67
2022-12-28T16:39:28.273Z,5.20
2022-12-28T16:41:56.793Z,4.23
2022-12-28T16:44:26.901Z,3.80
2022-12-28T16:46:58.528Z,3.83
2022-12-28T16:49:27.139Z,3.77
2022-12-28T16:51:55.322Z,4.20
2022-12-28T16:54:27.349Z,3.80
2022-12-28T16:56:56.200Z,2.90
2022-12-28T16:59:26.593Z,2.67
2022-12-28T17:01:56.144Z,1.77
2022-12-28T17:04:24.800Z,1.73
2022-12-28T17:06:53.731Z,2.20
2022-12-28T17:09:22.343Z,2.80
2022-12-28T17:11:52.263Z,1.67
2022-12-28T17:14:36.494Z,2.17
2022-12-28T17:17:06.311Z,1.77
2022-12-28T17:19:34.615Z,2.67
2022-12-28T17:22:02.769Z,2.00
2022-12-28T17:24:30.920Z,1.67
2022-12-28T17:27:06.854Z,1.40
2022-12-28T17:29:37.156Z,1.77
2022-12-28T17:32:06.019Z,1.57
2022-12-28T17:34:34.768Z,2.40
2022-12-28T17:37:03.095Z,2.27
2022-12-28T17:39:37.667Z,2.00
2022-12-28T17:42:10.111Z,2.90
2022-12-28T17:44:38.402Z,2.17
2022-12-28T17:47:06.614Z,1.60
2022-12-28T17:49:34.826Z,1.47
2022-12-28T17:52:03.116Z,1.40
2022-12-28T17:54:31.275Z,1.57
2022-12-28T17:56:59.578Z,1.20
2022-12-28T17:59:29.220Z,1.10
2022-12-28T18:01:57.577Z,1.40
2022-12-28T18:04:26.002Z,1.47
2022-12-28T18:06:54.189Z,1.13
2022-12-28T18:09:27.358Z,1.27
2022-12-28T18:11:56.769Z,1.10
2022-12-28T18:14:25.109Z,1.10
2022-12-28T18:16:55.220Z,1.33
2022-12-28T18:19:23.452Z,1.40
2022-12-28T18:21:51.768Z,1.50
2022-12-28T18:24:21.013Z,1.37
2022-12-28T18:26:49.393Z,1.50
2022-12-28T18:29:17.712Z,1.30
2022-12-28T18:31:45.916Z,1.20
2022-12-28T18:34:15.582Z,1.63
2022-12-28T18:36:44.028Z,1.57
2022-12-28T18:39:12.180Z,1.50
2022-12-28T18:41:40.300Z,1.63
2022-12-28T18:44:08.717Z,1.10
2022-12-28T18:46:36.946Z,1.50
2022-12-28T18:49:05.327Z,1.30
2022-12-28T18:51:34.970Z,1.60
2022-12-28T18:54:03.143Z,2.03
2022-12-28T18:56:31.351Z,1.80
2022-12-28T18:58:59.609Z,1.20
2022-12-28T19:04:18.440Z,1.60
2022-12-28T19:06:48.673Z,1.50
2022-12-28T19:09:16.817Z,1.30
2022-12-28T19:11:45.196Z,1.60
2022-12-28T19:14:15.285Z,1.57
2022-12-28T19:16:45.236Z,1.50
2022-12-28T19:19:13.749Z,1.53
2022-12-28T19:21:43.155Z,1.57
2022-12-28T19:24:14.554Z,1.10
2022-12-28T19:26:42.996Z,1.67
2022-12-28T19:29:12.747Z,1.70
2022-12-28T19:31:41.237Z,1.97
2022-12-28T19:34:09.722Z,2.50
2022-12-28T19:36:37.894Z,1.60
2022-12-28T19:39:06.229Z,1.40
2022-12-28T19:41:35.869Z,2.07
2022-12-28T19:44:04.225Z,2.00
2022-12-28T19:46:32.752Z,1.90
2022-12-28T19:49:02.575Z,1.87
2022-12-28T19:51:32.516Z,2.33
2022-12-28T19:54:01.191Z,2.07
2022-12-28T19:56:29.881Z,2.10
2022-12-28T19:59:06.027Z,2.53
2022-12-28T20:01:36.989Z,1.90
2022-12-28T20:04:12.483Z,2.10
2022-12-28T20:06:43.540Z,1.53
2022-12-28T20:09:12.274Z,1.87
2022-12-28T20:11:40.712Z,1.63
2022-12-28T20:14:13.685Z,1.73
2022-12-28T20:16:42.732Z,2.23
2022-12-28T20:19:11.867Z,1.80
2022-12-28T20:21:41.509Z,2.10
2022-12-28T20:24:12.311Z,2.30
2022-12-28T20:26:40.517Z,1.67
2022-12-28T20:29:10.303Z,1.77
2022-12-28T20:31:38.512Z,2.10
2022-12-28T20:34:06.648Z,1.87
2022-12-28T20:36:35.240Z,2.00
2022-12-28T20:39:04.312Z,1.80
2022-12-28T20:41:51.210Z,1.70
2022-12-28T20:44:25.516Z,1.80
2022-12-28T20:46:54.128Z,2.27
2022-12-28T20:49:23.490Z,1.97
2022-12-28T20:51:51.695Z,1.80
2022-12-28T20:54:20.351Z,1.70
2022-12-28T20:56:54.350Z,1.63
2022-12-28T20:59:26.014Z,1.70
2022-12-28T21:01:54.867Z,1.80
2022-12-28T21:04:24.851Z,1.80
2022-12-28T21:06:53.394Z,2.47
2022-12-28T21:09:21.622Z,2.20
2022-12-28T21:11:49.805Z,2.17
2022-12-28T21:14:18.011Z,2.00
2022-12-28T21:16:47.769Z,1.83
2022-12-28T21:19:16.603Z,2.27
2022-12-28T21:21:44.946Z,1.97
2022-12-28T21:24:13.510Z,1.30
2022-12-28T21:26:41.788Z,1.47
2022-12-28T21:29:10.118Z,1.60
2022-12-28T21:31:38.334Z,1.53
2022-12-28T21:34:07.874Z,1.33
2022-12-28T21:36:35.979Z,1.70
2022-12-28T21:39:04.308Z,1.90
2022-12-28T21:41:50.387Z,1.17
2022-12-28T21:44:20.664Z,1.17
2022-12-28T21:46:50.843Z,1.43
2022-12-28T21:49:20.877Z,1.67
2022-12-28T21:51:49.045Z,1.37
2022-12-28T21:54:19.167Z,1.53
2022-12-28T21:56:51.379Z,1.57
2022-12-28T21:59:20.216Z,1.47
2022-12-28T22:02:06.244Z,1.40
2022-12-28T22:05:00.231Z,1.20
2022-12-28T22:07:30.619Z,2.20
2022-12-28T22:10:16.303Z,1.37
2022-12-28T22:12:44.457Z,1.20
2022-12-28T22:15:32.694Z,1.20
2022-12-28T22:18:02.555Z,1.53
2022-12-28T22:20:32.686Z,1.70
2022-12-28T22:23:02.319Z,1.43
2022-12-28T22:25:31.623Z,1.33
2022-12-28T22:27:59.985Z,1.40
2022-12-28T22:30:28.611Z,1.37
2022-12-28T22:32:56.847Z,1.50
2022-12-28T22:35:25.337Z,1.70
2022-12-28T22:37:55.210Z,1.10
2022-12-28T22:40:23.663Z,1.43
2022-12-28T22:42:52.803Z,2.07
2022-12-28T22:45:23.511Z,2.10
2022-12-28T22:47:54.125Z,1.40
2022-12-28T22:50:22.781Z,1.40
2022-12-28T22:52:50.933Z,1.70
2022-12-28T22:55:20.838Z,8.00
2022-12-28T22:57:49.049Z,2.63
2022-12-28T23:00:19.179Z,1.40
2022-12-28T23:02:47.512Z,2.27
2022-12-28T23:05:16.138Z,1.20
2022-12-28T23:07:44.424Z,1.93
2022-12-28T23:10:12.596Z,1.40
2022-12-28T23:12:42.198Z,1.50
2022-12-28T23:15:18.894Z,3.10
2022-12-28T23:17:48.021Z,1.43
2022-12-28T23:20:33.887Z,2.37
2022-12-28T23:23:19.837Z,2.03
2022-12-28T23:26:05.353Z,2.70
2022-12-28T23:28:36.315Z,3.07
2022-12-28T23:31:04.683Z,2.07
2022-12-28T23:33:32.932Z,4.80
2022-12-28T23:36:03.435Z,2.20
2022-12-28T23:38:32.651Z,1.50
2022-12-28T23:41:14.730Z,3.00
2022-12-28T23:43:44.449Z,3.67
2022-12-28T23:46:12.647Z,3.40
2022-12-28T23:48:41.145Z,1.67
2022-12-28T23:51:10.148Z,2.10
2022-12-28T23:53:38.314Z,3.53
2022-12-28T23:56:07.088Z,1.50
2022-12-28T23:58:35.339Z,1.40
